Terminal Aerodrome Forecast
Issued by NWS Flagstaff, AZ

Home | Current Version | Previous Version | Text Only | Print | Product List | Glossary On
Versions: 1 2 3 4 5 6 7 8 9 10 11 12 13 14 15 16
000
FTUS45 KFGZ 311100
TAFINW
TAF
KINW 311132Z 3112/0112 VRB05KT P6SM FEW100
     FM312100 27011G18KT P6SM SCT100 SCT150
     FM010300 23009KT P6SM SCT100
     FM010700 VRB05KT P6SM FEW100=

USA.gov is the U.S. government's official web portal to all federal, state and local government web resources and services.